MSC Caracas — DGZN — position and weather

sailwx.info

Track history (hours):
 
Tides and Currents Weather Stations Pressure Air Temp Water Temp Dewpoint Dewpoint Depression Visibility Wind Speed Wind Dir Waves Ship Positions

MSC Caracas

Last reported at 2016-May-25 00:00 UTC. Time now 2016-May-25 07:21 UTC.
Position N 21°24' W 017°36'.

Length 207.4 m; beam 29.8 m; draft 11.4 m.

Type: Cargo ship. MMSI: 211283670.

Wind from 360 at 17 knots

Barometer 1018.0 mb
Air temperature 19.0 ° C
Visibility: greater than 5.4 NM
Dewpoint 15.7 ° C

Date/timePositionNaut miles runAvg speedWind from/ knotsBaromVisibWave heightAir tempDewpointWater temp
2016-May-25 00:00N 21°24' W 017°36'26517.7 360 / 171018.0 5.4 19.015.7
2016-May-24 09:00N 25°30' W 015°48'12516.5 360 / 121021.010.8 1.019.514.7
2016-May-24 01:28N 27°10' W 014°26'1617.3
2016-May-24 00:33N 27°23' W 014°15'1119.0
2016-May-24 00:00N 27°30' W 014°06'716.0 340 / 161020.0 5.4 18.816.3
2016-May-23 23:33N 27°36' W 014°02'1817.2
2016-May-23 22:30N 27°50' W 013°50'1617.1
2016-May-23 21:34N 28°03' W 013°39'1717.3
2016-May-23 20:34N 28°17' W 013°27'1817.6
2016-May-23 19:32N 28°32' W 013°15'1717.7
2016-May-23 18:33N 28°46' W 013°04'1817.3
2016-May-23 17:31N 29°01' W 012°52'1717.3
2016-May-23 16:33N 29°14' W 012°41'2017.0
2016-May-23 15:22N 29°31' W 012°27'4616.5
2016-May-23 12:33N 30°09' W 011°57'4916.3
2016-May-23 09:33N 30°49' W 011°24'1915.8
2016-May-23 08:22N 31°04' W 011°11'41316.0
2016-May-22 06:33N 36°01' W 005°26'  
2016-May-19 22:33N 36°09' W 005°24'6 6.1
2016-May-19 21:33N 36°04' W 005°21'7 6.9
2016-May-19 20:33N 36°04' W 005°12'  
2016-May-16 09:34N 36°04' W 005°15'1 1.4
2016-May-16 08:33N 36°03' W 005°16'1 1.4
2016-May-16 07:33N 36°03' W 005°18'5 4.9
2016-May-16 06:34N 36°01' W 005°23'  
Track history (hours):
 
Tides and Currents Weather Stations Pressure Air Temp Water Temp Dewpoint Dewpoint Depression Visibility Wind Speed Wind Dir Waves Ship Positions

MSC Caracas

Last reported at 2016-May-25 00:00 UTC. Time now 2016-May-25 07:21 UTC.
Position N 21°24' W 017°36'.

Length 207.4 m; beam 29.8 m; draft 11.4 m.

Type: Cargo ship. MMSI: 211283670.

Wind from 360 at 17 knots

Barometer 1018.0 mb
Air temperature 19.0 ° C
Visibility: greater than 5.4 NM
Dewpoint 15.7 ° C

Date/timePositionNaut miles runAvg speedWind from/ knotsBaromVisibWave heightAir tempDewpointWater temp
2016-May-25 00:00N 21°24' W 017°36'26517.7 360 / 171018.0 5.4 19.015.7
2016-May-24 09:00N 25°30' W 015°48'12516.5 360 / 121021.010.8 1.019.514.7
2016-May-24 01:28N 27°10' W 014°26'1617.3
2016-May-24 00:33N 27°23' W 014°15'1119.0
2016-May-24 00:00N 27°30' W 014°06'716.0 340 / 161020.0 5.4 18.816.3
2016-May-23 23:33N 27°36' W 014°02'1817.2
2016-May-23 22:30N 27°50' W 013°50'1617.1
2016-May-23 21:34N 28°03' W 013°39'1717.3
2016-May-23 20:34N 28°17' W 013°27'1817.6
2016-May-23 19:32N 28°32' W 013°15'1717.7
2016-May-23 18:33N 28°46' W 013°04'1817.3
2016-May-23 17:31N 29°01' W 012°52'1717.3
2016-May-23 16:33N 29°14' W 012°41'2017.0
2016-May-23 15:22N 29°31' W 012°27'4616.5
2016-May-23 12:33N 30°09' W 011°57'4916.3
2016-May-23 09:33N 30°49' W 011°24'1915.8
2016-May-23 08:22N 31°04' W 011°11'41316.0
2016-May-22 06:33N 36°01' W 005°26'  
2016-May-19 22:33N 36°09' W 005°24'6 6.1
2016-May-19 21:33N 36°04' W 005°21'7 6.9
2016-May-19 20:33N 36°04' W 005°12'  
2016-May-16 09:34N 36°04' W 005°15'1 1.4
2016-May-16 08:33N 36°03' W 005°16'1 1.4
2016-May-16 07:33N 36°03' W 005°18'5 4.9
2016-May-16 06:34N 36°01' W 005°23'  

Dump ship's entire track history